createdAt,value
2023-07-03T00:00:08.061Z,21.38
2023-07-03T00:03:14.949Z,21.39
2023-07-03T00:06:17.495Z,21.27
2023-07-03T00:09:20.192Z,21.06
2023-07-03T00:12:22.798Z,21.17
2023-07-03T00:15:25.270Z,21.21
2023-07-03T00:18:29.696Z,21.10
2023-07-03T00:21:32.167Z,21.08
2023-07-03T00:24:35.023Z,21.02
2023-07-03T00:27:37.817Z,20.85
2023-07-03T00:30:40.225Z,20.57
2023-07-03T00:33:43.050Z,20.52
2023-07-03T00:36:47.196Z,20.50
2023-07-03T00:39:50.067Z,20.34
2023-07-03T00:42:54.160Z,20.19
2023-07-03T00:45:56.811Z,19.95
2023-07-03T00:49:00.119Z,20.09
2023-07-03T00:52:03.776Z,20.17
2023-07-03T00:55:07.363Z,20.19
2023-07-03T00:58:10.110Z,20.23
2023-07-03T01:01:21.619Z,20.23
2023-07-03T01:04:31.605Z,20.17
2023-07-03T01:07:37.091Z,20.10
2023-07-03T01:10:42.423Z,20.12
2023-07-03T01:13:46.603Z,19.88
2023-07-03T01:16:51.149Z,19.48
2023-07-03T01:19:55.016Z,19.33
2023-07-03T01:23:19.206Z,19.58
2023-07-03T01:26:23.136Z,19.58
2023-07-03T01:29:25.986Z,19.53
2023-07-03T01:32:32.301Z,19.59
2023-07-03T01:35:35.025Z,19.67
2023-07-03T01:38:41.940Z,19.58
2023-07-03T01:41:45.278Z,19.59
2023-07-03T01:44:48.397Z,19.58
2023-07-03T01:47:51.193Z,19.61
2023-07-03T01:50:53.909Z,19.55
2023-07-03T01:54:24.862Z,19.53
2023-07-03T01:57:39.179Z,19.44
2023-07-03T02:00:49.730Z,19.35
2023-07-03T02:04:07.072Z,19.30
2023-07-03T02:07:12.655Z,19.22
2023-07-03T02:10:15.117Z,19.31
2023-07-03T02:13:18.312Z,19.29
2023-07-03T02:16:21.102Z,19.17
2023-07-03T02:19:29.574Z,19.24
2023-07-03T02:22:32.717Z,19.28
2023-07-03T02:25:35.319Z,19.25
2023-07-03T02:28:38.036Z,19.18
2023-07-03T02:31:41.527Z,19.16
2023-07-03T02:34:44.208Z,19.14
2023-07-03T02:37:46.868Z,19.12
2023-07-03T02:40:49.368Z,19.03
2023-07-03T02:43:52.139Z,19.02
2023-07-03T02:46:55.077Z,18.99
2023-07-03T02:49:58.082Z,19.01
2023-07-03T02:53:01.246Z,19.07
2023-07-03T02:56:04.411Z,19.10
2023-07-03T02:59:07.599Z,19.14
2023-07-03T03:02:12.747Z,19.22
2023-07-03T03:05:15.488Z,19.13
2023-07-03T03:08:19.516Z,19.09
2023-07-03T03:11:21.949Z,19.10
2023-07-03T03:14:28.819Z,19.02
2023-07-03T03:17:31.864Z,19.10
2023-07-03T03:20:34.671Z,19.10
2023-07-03T03:23:37.616Z,19.09
2023-07-03T03:26:40.098Z,19.18
2023-07-03T03:29:43.011Z,19.16
2023-07-03T03:32:45.815Z,19.16
2023-07-03T03:35:48.728Z,19.24
2023-07-03T03:38:52.047Z,19.27
2023-07-03T03:41:55.228Z,19.21
2023-07-03T03:44:57.930Z,19.17
2023-07-03T03:48:00.979Z,19.28
2023-07-03T03:51:04.427Z,19.28
2023-07-03T03:54:08.936Z,19.32
2023-07-03T03:57:12.112Z,19.51
2023-07-03T04:00:18.460Z,19.65
2023-07-03T04:03:21.791Z,19.64
2023-07-03T04:06:24.223Z,19.75
2023-07-03T04:09:26.932Z,19.83
2023-07-03T04:12:29.363Z,20.13
2023-07-03T04:15:36.610Z,20.25
2023-07-03T04:18:39.697Z,20.29
2023-07-03T04:21:42.468Z,20.34
2023-07-03T04:24:45.384Z,20.40
2023-07-03T04:27:47.914Z,20.43
2023-07-03T04:30:51.119Z,20.42
2023-07-03T04:33:53.789Z,20.43
2023-07-03T04:36:56.208Z,20.48
2023-07-03T04:39:59.124Z,20.48
2023-07-03T04:43:02.396Z,20.75
2023-07-03T04:46:05.290Z,20.83
2023-07-03T04:49:09.206Z,20.92
2023-07-03T04:52:12.323Z,21.02
2023-07-03T04:55:15.548Z,20.96
2023-07-03T04:58:18.035Z,21.17
2023-07-03T05:02:44.711Z,20.90
2023-07-03T05:05:47.229Z,20.91
2023-07-03T05:09:09.904Z,20.98
2023-07-03T05:12:12.935Z,20.73
2023-07-03T05:15:16.836Z,20.76
2023-07-03T05:18:19.346Z,20.56
2023-07-03T05:21:22.050Z,20.76
2023-07-03T05:24:24.681Z,20.88
2023-07-03T05:27:27.131Z,20.98
2023-07-03T05:30:29.960Z,21.27
2023-07-03T05:33:32.640Z,21.32
2023-07-03T05:36:37.143Z,21.80
2023-07-03T05:39:39.940Z,22.09
2023-07-03T05:42:42.414Z,22.44
2023-07-03T05:45:45.743Z,22.65
2023-07-03T05:48:48.168Z,22.61
2023-07-03T05:51:50.709Z,22.64
2023-07-03T05:54:53.958Z,22.69
2023-07-03T05:57:56.372Z,22.16
2023-07-03T06:01:00.387Z,22.37
2023-07-03T06:04:03.627Z,22.31
2023-07-03T06:07:07.374Z,22.48
2023-07-03T06:10:12.238Z,22.63
2023-07-03T06:13:15.297Z,22.64
2023-07-03T06:16:17.829Z,22.59
2023-07-03T06:19:21.731Z,22.68
2023-07-03T06:22:24.611Z,22.95
2023-07-03T06:25:27.299Z,23.28
2023-07-03T06:28:29.821Z,23.20
2023-07-03T06:31:32.635Z,23.13
2023-07-03T06:34:35.324Z,23.06
2023-07-03T06:37:40.793Z,23.16
2023-07-03T06:40:43.385Z,23.70
2023-07-03T06:43:45.900Z,24.32
2023-07-03T06:46:50.240Z,25.12
2023-07-03T06:49:52.745Z,25.69
2023-07-03T06:52:55.367Z,26.29
2023-07-03T06:55:59.288Z,26.81
2023-07-03T06:59:01.830Z,26.60
2023-07-03T07:02:06.842Z,26.81
2023-07-03T07:05:09.551Z,27.68
2023-07-03T07:08:17.789Z,28.10
2023-07-03T07:11:30.209Z,27.93
2023-07-03T07:14:32.904Z,27.88
2023-07-03T07:17:46.339Z,26.95
2023-07-03T07:20:55.525Z,26.48
2023-07-03T07:24:01.026Z,26.47
2023-07-03T07:27:06.174Z,26.27
2023-07-03T07:30:09.183Z,26.90
2023-07-03T07:33:11.816Z,26.58
2023-07-03T07:36:15.691Z,27.74
2023-07-03T07:39:21.432Z,28.54
2023-07-03T07:42:24.016Z,29.02
2023-07-03T07:45:26.722Z,29.47
2023-07-03T07:48:31.134Z,29.38
2023-07-03T07:51:35.618Z,29.06
2023-07-03T07:54:38.108Z,29.67
2023-07-03T07:57:41.437Z,29.87
2023-07-03T08:00:45.186Z,30.56
2023-07-03T08:03:47.896Z,30.97
2023-07-03T08:06:50.372Z,31.41
2023-07-03T08:09:52.948Z,31.03
2023-07-03T08:12:55.835Z,30.32
2023-07-03T08:15:58.998Z,30.67
2023-07-03T08:19:01.607Z,30.63
2023-07-03T08:22:04.160Z,30.94
2023-07-03T08:25:07.841Z,31.01
2023-07-03T08:28:11.040Z,30.55
2023-07-03T08:31:13.536Z,30.72
2023-07-03T08:34:16.619Z,31.48
2023-07-03T08:37:19.224Z,31.69
2023-07-03T08:40:23.753Z,31.05
2023-07-03T08:43:33.502Z,31.84
2023-07-03T08:46:38.022Z,31.50
2023-07-03T08:49:42.322Z,30.62
2023-07-03T08:52:54.770Z,31.16
2023-07-03T08:56:04.482Z,30.90
2023-07-03T08:59:07.370Z,31.42
2023-07-03T09:02:34.094Z,32.42
2023-07-03T09:05:55.113Z,32.66
2023-07-03T09:09:24.480Z,32.74
2023-07-03T09:12:52.062Z,32.78
2023-07-03T09:16:05.412Z,31.58
2023-07-03T09:19:18.140Z,32.47
2023-07-03T09:22:37.742Z,31.99
2023-07-03T09:25:51.544Z,33.21
2023-07-03T09:28:59.608Z,33.53
2023-07-03T09:32:02.474Z,31.01
2023-07-03T09:35:13.269Z,31.02
2023-07-03T09:38:18.865Z,32.96
2023-07-03T09:41:34.439Z,31.37
2023-07-03T09:44:42.820Z,31.20
2023-07-03T09:47:54.754Z,31.34
2023-07-03T09:51:07.193Z,31.55
2023-07-03T09:54:20.814Z,31.46
2023-07-03T09:57:28.010Z,32.05
2023-07-03T10:00:30.662Z,31.01
2023-07-03T10:03:36.701Z,32.17
2023-07-03T10:06:40.915Z,30.48
2023-07-03T10:13:02.844Z,31.96
2023-07-03T10:16:06.963Z,32.90
2023-07-03T10:19:11.167Z,31.19
2023-07-03T10:22:15.178Z,30.50
2023-07-03T10:25:24.209Z,31.85
2023-07-03T10:28:35.995Z,31.55
2023-07-03T10:31:59.656Z,32.69
2023-07-03T10:35:10.029Z,31.21
2023-07-03T10:38:24.650Z,30.35
2023-07-03T10:41:36.330Z,30.49
2023-07-03T10:44:41.974Z,31.03
2023-07-03T10:47:52.506Z,32.87
2023-07-03T10:51:05.699Z,30.29
2023-07-03T10:54:19.616Z,31.61
2023-07-03T10:57:34.580Z,31.65
2023-07-03T11:00:43.974Z,31.94
2023-07-03T11:04:22.763Z,32.92
2023-07-03T11:07:52.270Z,33.74
2023-07-03T11:11:17.800Z,33.82
2023-07-03T11:14:47.282Z,34.02
2023-07-03T11:24:25.958Z,32.03
2023-07-03T11:30:45.316Z,32.82
2023-07-03T11:37:03.471Z,31.85
2023-07-03T11:40:34.537Z,30.21
2023-07-03T11:43:48.036Z,30.95
2023-07-03T11:46:54.256Z,31.01
2023-07-03T11:50:02.320Z,31.14
2023-07-03T11:53:05.417Z,29.55
2023-07-03T11:56:14.982Z,30.33
2023-07-03T11:59:24.122Z,29.98
2023-07-03T12:02:26.807Z,31.50
2023-07-03T12:05:51.426Z,29.69
2023-07-03T12:08:54.370Z,30.67
2023-07-03T12:12:04.323Z,32.00
2023-07-03T12:15:13.364Z,33.10
2023-07-03T12:18:16.520Z,31.70
2023-07-03T12:21:19.299Z,31.74
2023-07-03T12:24:28.166Z,32.45
2023-07-03T12:27:30.874Z,30.81
2023-07-03T12:30:33.314Z,31.13
2023-07-03T12:33:35.843Z,31.60
2023-07-03T12:36:40.399Z,32.99
2023-07-03T12:39:46.997Z,31.72
2023-07-03T12:42:52.867Z,31.07
2023-07-03T12:45:55.888Z,29.90
2023-07-03T12:49:15.180Z,30.44
2023-07-03T12:52:17.678Z,31.85
2023-07-03T12:55:20.361Z,31.47
2023-07-03T12:58:24.465Z,30.18
2023-07-03T13:01:28.069Z,30.30
2023-07-03T13:04:35.247Z,30.50
2023-07-03T13:07:41.403Z,30.69
2023-07-03T13:11:03.744Z,31.08
2023-07-03T13:14:27.520Z,31.81
2023-07-03T13:17:31.558Z,31.40
2023-07-03T13:20:35.216Z,31.33
2023-07-03T13:23:42.739Z,31.77
2023-07-03T13:26:49.386Z,31.38
2023-07-03T13:29:58.898Z,31.31
2023-07-03T13:33:07.961Z,30.59
2023-07-03T13:36:58.691Z,30.82
2023-07-03T13:40:03.172Z,30.69
2023-07-03T13:43:06.304Z,30.01
2023-07-03T13:46:09.395Z,31.38
2023-07-03T13:49:15.551Z,31.30
2023-07-03T13:52:18.152Z,31.46
2023-07-03T13:55:21.206Z,31.18
2023-07-03T13:58:24.057Z,31.64
2023-07-03T14:01:27.355Z,30.97
2023-07-03T14:04:30.338Z,30.87
2023-07-03T14:07:33.034Z,30.85
2023-07-03T14:10:35.574Z,30.83
2023-07-03T14:13:39.252Z,30.89
2023-07-03T14:16:42.077Z,30.99
2023-07-03T14:19:44.502Z,30.58
2023-07-03T14:22:49.611Z,30.93
2023-07-03T14:25:52.678Z,30.69
2023-07-03T14:28:55.334Z,30.71
2023-07-03T14:31:58.319Z,31.19
2023-07-03T14:35:02.118Z,30.79
2023-07-03T14:38:04.863Z,31.02
2023-07-03T14:41:07.479Z,30.92
2023-07-03T14:44:10.166Z,30.84
2023-07-03T14:47:12.834Z,30.70
2023-07-03T14:50:15.341Z,30.84
2023-07-03T14:53:18.253Z,30.39
2023-07-03T14:56:20.751Z,30.88
2023-07-03T14:59:23.715Z,30.58
2023-07-03T15:02:27.386Z,30.18
2023-07-03T15:05:29.805Z,30.26
2023-07-03T15:08:32.788Z,30.29
2023-07-03T15:11:36.395Z,30.13
2023-07-03T15:14:40.257Z,30.28
2023-07-03T15:17:42.977Z,29.87
2023-07-03T15:20:47.061Z,29.75
2023-07-03T15:23:51.799Z,29.64
2023-07-03T15:26:54.554Z,29.68
2023-07-03T15:29:57.389Z,29.43
2023-07-03T15:33:00.103Z,29.52
2023-07-03T15:36:03.832Z,29.63
2023-07-03T15:39:07.337Z,29.63
2023-07-03T15:42:10.483Z,29.67
2023-07-03T15:45:13.158Z,29.73
2023-07-03T15:48:15.948Z,29.89
2023-07-03T15:51:18.882Z,29.83
2023-07-03T15:54:21.984Z,29.74
2023-07-03T15:57:24.495Z,29.27
2023-07-03T16:00:27.201Z,29.03
2023-07-03T16:03:30.602Z,29.07
2023-07-03T16:06:35.474Z,28.89
2023-07-03T16:09:38.122Z,28.83
2023-07-03T16:12:40.549Z,29.08
2023-07-03T16:15:43.326Z,28.42
2023-07-03T16:18:50.210Z,28.30
2023-07-03T16:21:52.665Z,28.15
2023-07-03T16:24:55.489Z,28.27
2023-07-03T16:27:58.305Z,27.89
2023-07-03T16:31:07.977Z,28.00
2023-07-03T16:34:10.639Z,27.47
2023-07-03T16:37:13.351Z,27.49
2023-07-03T16:40:15.984Z,27.42
2023-07-03T16:43:18.462Z,27.50
2023-07-03T16:46:22.658Z,27.09
2023-07-03T16:49:25.258Z,26.98
2023-07-03T16:52:27.653Z,26.77
2023-07-03T16:55:30.221Z,26.48
2023-07-03T16:58:33.867Z,26.52
2023-07-03T17:01:36.497Z,26.38
2023-07-03T17:04:39.094Z,26.50
2023-07-03T17:07:42.195Z,26.53
2023-07-03T17:10:44.831Z,26.06
2023-07-03T17:13:49.029Z,26.32
2023-07-03T17:16:51.842Z,26.41
2023-07-03T17:19:54.720Z,26.27
2023-07-03T17:22:57.181Z,26.11
2023-07-03T17:26:01.671Z,26.24
2023-07-03T17:29:04.931Z,26.19
2023-07-03T17:32:07.582Z,25.86
2023-07-03T17:35:11.462Z,25.86
2023-07-03T17:38:15.690Z,25.65
2023-07-03T17:41:20.016Z,25.71
2023-07-03T17:44:23.070Z,25.82
2023-07-03T17:47:25.838Z,25.81
2023-07-03T17:50:28.484Z,25.68
2023-07-03T17:53:30.942Z,25.43
2023-07-03T17:56:33.849Z,25.36
2023-07-03T17:59:37.124Z,25.32
2023-07-03T18:02:39.944Z,25.31
2023-07-03T18:05:42.643Z,25.32
2023-07-03T18:08:45.102Z,25.18
2023-07-03T18:11:47.875Z,24.94
2023-07-03T18:14:50.299Z,24.91
2023-07-03T18:17:53.382Z,24.45
2023-07-03T18:20:56.226Z,24.44
2023-07-03T18:23:58.881Z,24.40
2023-07-03T18:27:02.077Z,24.11
2023-07-03T18:30:05.119Z,24.09
2023-07-03T18:33:07.858Z,23.75
2023-07-03T18:36:10.623Z,23.45
2023-07-03T18:39:13.167Z,23.32
2023-07-03T18:42:15.889Z,23.40
2023-07-03T18:45:18.371Z,23.62
2023-07-03T18:48:21.034Z,23.67
2023-07-03T18:51:24.244Z,23.73
2023-07-03T18:54:26.798Z,23.77
2023-07-03T18:57:29.604Z,23.77
2023-07-03T19:00:32.538Z,23.70
2023-07-03T19:03:35.356Z,23.77
2023-07-03T19:06:40.307Z,23.65
2023-07-03T19:09:43.213Z,23.69
2023-07-03T19:12:46.743Z,23.57
2023-07-03T19:15:49.495Z,23.48
2023-07-03T19:18:52.431Z,23.51
2023-07-03T19:21:55.243Z,23.28
2023-07-03T19:24:57.725Z,22.82
2023-07-03T19:28:00.601Z,22.59
2023-07-03T19:31:03.885Z,22.61
2023-07-03T19:34:06.840Z,22.38
2023-07-03T19:37:09.460Z,22.20
2023-07-03T19:40:12.206Z,22.25
2023-07-03T19:43:15.714Z,22.07
2023-07-03T19:46:18.421Z,22.19
2023-07-03T19:49:21.139Z,21.94
2023-07-03T19:52:23.978Z,21.72
2023-07-03T19:55:28.037Z,21.71
2023-07-03T19:58:31.560Z,21.88
2023-07-03T20:01:34.258Z,21.72
2023-07-03T20:04:37.241Z,21.70
2023-07-03T20:07:39.942Z,21.68
2023-07-03T20:10:42.817Z,21.76
2023-07-03T20:16:49.636Z,21.97
2023-07-03T20:19:53.085Z,21.99
2023-07-03T20:22:55.709Z,21.76
2023-07-03T20:25:59.018Z,21.53
2023-07-03T20:29:02.155Z,21.64
2023-07-03T20:32:06.592Z,21.58
2023-07-03T20:35:09.307Z,21.54
2023-07-03T20:38:12.053Z,21.57
2023-07-03T20:41:18.690Z,21.70
2023-07-03T20:44:21.299Z,21.56
2023-07-03T20:47:25.894Z,21.57
2023-07-03T20:50:28.785Z,21.61
2023-07-03T20:53:48.920Z,21.81
2023-07-03T20:56:51.448Z,21.79
2023-07-03T20:59:54.042Z,21.90
2023-07-03T21:02:56.545Z,21.36
2023-07-03T21:05:59.170Z,20.64
2023-07-03T21:09:02.508Z,20.95
2023-07-03T21:12:05.533Z,21.14
2023-07-03T21:15:11.416Z,20.89
2023-07-03T21:18:13.849Z,20.93
2023-07-03T21:21:21.394Z,20.89
2023-07-03T21:24:23.990Z,20.99
2023-07-03T21:27:26.390Z,21.09
2023-07-03T21:30:29.626Z,21.09
2023-07-03T21:33:34.524Z,21.26
2023-07-03T21:36:37.078Z,21.35
2023-07-03T21:39:40.532Z,20.99
2023-07-03T21:42:43.229Z,21.11
2023-07-03T21:45:46.091Z,21.03
2023-07-03T21:48:52.430Z,21.04
2023-07-03T21:51:55.374Z,21.24
2023-07-03T21:54:58.001Z,21.23
2023-07-03T21:58:00.469Z,21.20
2023-07-03T22:01:04.671Z,21.00
2023-07-03T22:04:09.010Z,20.70
2023-07-03T22:07:13.656Z,20.54
2023-07-03T22:10:16.535Z,20.53
2023-07-03T22:13:19.632Z,20.55
2023-07-03T22:16:22.382Z,20.57
2023-07-03T22:19:25.031Z,20.35
2023-07-03T22:22:27.892Z,20.45
2023-07-03T22:25:31.070Z,20.60
2023-07-03T22:28:33.678Z,20.61
2023-07-03T22:31:36.717Z,20.64
2023-07-03T22:34:39.281Z,20.68
2023-07-03T22:37:42.805Z,20.70
2023-07-03T22:40:45.507Z,20.89
2023-07-03T22:43:47.934Z,20.80
2023-07-03T22:46:51.935Z,20.85
2023-07-03T22:49:54.522Z,20.78
2023-07-03T22:52:57.296Z,20.61
2023-07-03T22:56:03.131Z,20.54
2023-07-03T22:59:05.672Z,20.60
2023-07-03T23:02:08.380Z,20.63
2023-07-03T23:05:12.062Z,20.55
2023-07-03T23:08:15.668Z,20.56
2023-07-03T23:11:18.496Z,20.63
2023-07-03T23:14:21.373Z,20.64
2023-07-03T23:17:28.139Z,20.33
2023-07-03T23:20:31.807Z,20.42
2023-07-03T23:23:35.011Z,20.55
2023-07-03T23:26:38.475Z,20.55
2023-07-03T23:29:41.740Z,20.57
2023-07-03T23:32:44.718Z,20.53
2023-07-03T23:35:47.266Z,20.51
2023-07-03T23:38:51.007Z,20.49
2023-07-03T23:41:53.823Z,20.31
2023-07-03T23:44:56.263Z,20.30
2023-07-03T23:47:59.568Z,20.24
2023-07-03T23:51:04.620Z,20.28
2023-07-03T23:54:07.388Z,20.21
2023-07-03T23:57:10.076Z,19.94
